sensor_id;sensor_type;location;lat;lon;timestamp;P1;durP1;ratioP1;P2;durP2;ratioP2
80539;SDS011;69869;48.036;15.780;2023-08-07T00:02:24;1.00;;;0.40;;
80539;SDS011;69869;48.036;15.780;2023-08-07T00:04:50;0.65;;;0.40;;
80539;SDS011;69869;48.036;15.780;2023-08-07T00:07:16;1.35;;;0.40;;
80539;SDS011;69869;48.036;15.780;2023-08-07T00:09:43;0.43;;;0.43;;
80539;SDS011;69869;48.036;15.780;2023-08-07T00:12:09;0.40;;;0.40;;
80539;SDS011;69869;48.036;15.780;2023-08-07T00:14:34;0.40;;;0.40;;
80539;SDS011;69869;48.036;15.780;2023-08-07T00:17:00;1.15;;;0.50;;
80539;SDS011;69869;48.036;15.780;2023-08-07T00:19:26;0.30;;;0.30;;
80539;SDS011;69869;48.036;15.780;2023-08-07T00:21:51;0.40;;;0.40;;
80539;SDS011;69869;48.036;15.780;2023-08-07T00:24:17;0.40;;;0.40;;
80539;SDS011;69869;48.036;15.780;2023-08-07T00:26:42;2.53;;;0.57;;
80539;SDS011;69869;48.036;15.780;2023-08-07T00:29:08;1.08;;;0.30;;
80539;SDS011;69869;48.036;15.780;2023-08-07T00:31:34;0.77;;;0.40;;
80539;SDS011;69869;48.036;15.780;2023-08-07T00:33:59;0.75;;;0.47;;
80539;SDS011;69869;48.036;15.780;2023-08-07T00:36:25;0.30;;;0.30;;
80539;SDS011;69869;48.036;15.780;2023-08-07T00:38:53;1.23;;;0.50;;
80539;SDS011;69869;48.036;15.780;2023-08-07T00:41:19;0.82;;;0.47;;
80539;SDS011;69869;48.036;15.780;2023-08-07T00:43:45;0.30;;;0.30;;
80539;SDS011;69869;48.036;15.780;2023-08-07T00:46:11;0.40;;;0.40;;
80539;SDS011;69869;48.036;15.780;2023-08-07T00:48:36;0.40;;;0.40;;
80539;SDS011;69869;48.036;15.780;2023-08-07T00:51:04;0.52;;;0.40;;
80539;SDS011;69869;48.036;15.780;2023-08-07T00:53:32;0.40;;;0.40;;
80539;SDS011;69869;48.036;15.780;2023-08-07T00:55:59;0.98;;;0.40;;
80539;SDS011;69869;48.036;15.780;2023-08-07T00:58:27;0.47;;;0.45;;
80539;SDS011;69869;48.036;15.780;2023-08-07T01:00:53;0.30;;;0.30;;
80539;SDS011;69869;48.036;15.780;2023-08-07T01:03:18;1.35;;;0.52;;
80539;SDS011;69869;48.036;15.780;2023-08-07T01:05:44;0.40;;;0.40;;
80539;SDS011;69869;48.036;15.780;2023-08-07T01:08:10;1.48;;;0.50;;
80539;SDS011;69869;48.036;15.780;2023-08-07T01:13:33;0.40;;;0.40;;
80539;SDS011;69869;48.036;15.780;2023-08-07T01:16:07;0.38;;;0.38;;
80539;SDS011;69869;48.036;15.780;2023-08-07T01:18:43;0.40;;;0.40;;
80539;SDS011;69869;48.036;15.780;2023-08-07T01:21:19;0.40;;;0.40;;
80539;SDS011;69869;48.036;15.780;2023-08-07T01:23:46;0.50;;;0.50;;
80539;SDS011;69869;48.036;15.780;2023-08-07T01:26:13;0.52;;;0.52;;
80539;SDS011;69869;48.036;15.780;2023-08-07T01:28:41;0.40;;;0.40;;
80539;SDS011;69869;48.036;15.780;2023-08-07T01:31:13;0.45;;;0.45;;
80539;SDS011;69869;48.036;15.780;2023-08-07T01:33:47;0.73;;;0.60;;
80539;SDS011;69869;48.036;15.780;2023-08-07T01:36:18;0.38;;;0.38;;
80539;SDS011;69869;48.036;15.780;2023-08-07T01:38:46;1.05;;;0.40;;
80539;SDS011;69869;48.036;15.780;2023-08-07T01:41:14;0.40;;;0.40;;
80539;SDS011;69869;48.036;15.780;2023-08-07T01:43:40;1.30;;;0.50;;
80539;SDS011;69869;48.036;15.780;2023-08-07T01:46:05;0.50;;;0.50;;
80539;SDS011;69869;48.036;15.780;2023-08-07T01:48:31;0.47;;;0.47;;
80539;SDS011;69869;48.036;15.780;2023-08-07T01:50:57;0.57;;;0.57;;
80539;SDS011;69869;48.036;15.780;2023-08-07T01:53:23;0.40;;;0.40;;
80539;SDS011;69869;48.036;15.780;2023-08-07T01:55:48;0.45;;;0.45;;
80539;SDS011;69869;48.036;15.780;2023-08-07T01:58:14;0.50;;;0.50;;
80539;SDS011;69869;48.036;15.780;2023-08-07T02:00:39;0.50;;;0.50;;
80539;SDS011;69869;48.036;15.780;2023-08-07T02:03:05;0.63;;;0.40;;
80539;SDS011;69869;48.036;15.780;2023-08-07T02:05:31;0.50;;;0.50;;
80539;SDS011;69869;48.036;15.780;2023-08-07T02:07:56;0.68;;;0.55;;
80539;SDS011;69869;48.036;15.780;2023-08-07T02:10:22;0.50;;;0.50;;
80539;SDS011;69869;48.036;15.780;2023-08-07T02:12:48;0.55;;;0.40;;
80539;SDS011;69869;48.036;15.780;2023-08-07T02:15:14;0.60;;;0.60;;
80539;SDS011;69869;48.036;15.780;2023-08-07T02:17:40;0.50;;;0.50;;
80539;SDS011;69869;48.036;15.780;2023-08-07T02:20:06;0.43;;;0.43;;
80539;SDS011;69869;48.036;15.780;2023-08-07T02:22:32;0.50;;;0.50;;
80539;SDS011;69869;48.036;15.780;2023-08-07T02:24:58;0.80;;;0.60;;
80539;SDS011;69869;48.036;15.780;2023-08-07T02:27:23;0.50;;;0.50;;
80539;SDS011;69869;48.036;15.780;2023-08-07T02:29:49;0.50;;;0.50;;
80539;SDS011;69869;48.036;15.780;2023-08-07T02:32:16;0.63;;;0.40;;
80539;SDS011;69869;48.036;15.780;2023-08-07T02:34:41;0.57;;;0.57;;
80539;SDS011;69869;48.036;15.780;2023-08-07T02:37:08;0.50;;;0.50;;
80539;SDS011;69869;48.036;15.780;2023-08-07T02:39:34;0.45;;;0.45;;
80539;SDS011;69869;48.036;15.780;2023-08-07T02:41:59;0.50;;;0.50;;
80539;SDS011;69869;48.036;15.780;2023-08-07T02:44:25;0.50;;;0.50;;
80539;SDS011;69869;48.036;15.780;2023-08-07T02:46:50;2.08;;;0.52;;
80539;SDS011;69869;48.036;15.780;2023-08-07T02:49:16;0.55;;;0.50;;
80539;SDS011;69869;48.036;15.780;2023-08-07T02:51:42;0.40;;;0.40;;
80539;SDS011;69869;48.036;15.780;2023-08-07T02:54:07;0.50;;;0.50;;
80539;SDS011;69869;48.036;15.780;2023-08-07T02:56:33;0.40;;;0.40;;
80539;SDS011;69869;48.036;15.780;2023-08-07T02:58:59;0.55;;;0.40;;
80539;SDS011;69869;48.036;15.780;2023-08-07T03:01:26;0.43;;;0.43;;
80539;SDS011;69869;48.036;15.780;2023-08-07T03:03:52;0.50;;;0.50;;
80539;SDS011;69869;48.036;15.780;2023-08-07T03:06:18;0.60;;;0.60;;
80539;SDS011;69869;48.036;15.780;2023-08-07T03:08:43;0.50;;;0.50;;
80539;SDS011;69869;48.036;15.780;2023-08-07T03:11:09;0.30;;;0.30;;
80539;SDS011;69869;48.036;15.780;2023-08-07T03:13:35;1.27;;;0.40;;
80539;SDS011;69869;48.036;15.780;2023-08-07T03:16:01;0.50;;;0.50;;
80539;SDS011;69869;48.036;15.780;2023-08-07T03:18:29;0.52;;;0.52;;
80539;SDS011;69869;48.036;15.780;2023-08-07T03:20:56;0.50;;;0.50;;
80539;SDS011;69869;48.036;15.780;2023-08-07T03:23:22;0.50;;;0.50;;
80539;SDS011;69869;48.036;15.780;2023-08-07T03:25:49;1.20;;;0.50;;
80539;SDS011;69869;48.036;15.780;2023-08-07T03:28:15;0.50;;;0.50;;
80539;SDS011;69869;48.036;15.780;2023-08-07T03:30:41;0.50;;;0.50;;
80539;SDS011;69869;48.036;15.780;2023-08-07T03:33:07;0.55;;;0.55;;
80539;SDS011;69869;48.036;15.780;2023-08-07T03:35:33;1.20;;;0.50;;
80539;SDS011;69869;48.036;15.780;2023-08-07T03:37:58;0.80;;;0.60;;
80539;SDS011;69869;48.036;15.780;2023-08-07T03:40:24;0.47;;;0.47;;
80539;SDS011;69869;48.036;15.780;2023-08-07T03:42:50;0.57;;;0.57;;
80539;SDS011;69869;48.036;15.780;2023-08-07T03:45:15;0.43;;;0.43;;
80539;SDS011;69869;48.036;15.780;2023-08-07T03:47:41;0.55;;;0.55;;
80539;SDS011;69869;48.036;15.780;2023-08-07T03:50:07;0.45;;;0.45;;
80539;SDS011;69869;48.036;15.780;2023-08-07T03:52:32;0.55;;;0.55;;
80539;SDS011;69869;48.036;15.780;2023-08-07T03:54:58;0.40;;;0.38;;
80539;SDS011;69869;48.036;15.780;2023-08-07T03:57:24;0.50;;;0.50;;
80539;SDS011;69869;48.036;15.780;2023-08-07T03:59:50;0.40;;;0.40;;
80539;SDS011;69869;48.036;15.780;2023-08-07T04:02:16;0.50;;;0.50;;
80539;SDS011;69869;48.036;15.780;2023-08-07T04:04:41;0.60;;;0.60;;
80539;SDS011;69869;48.036;15.780;2023-08-07T04:07:07;0.40;;;0.40;;
80539;SDS011;69869;48.036;15.780;2023-08-07T04:09:33;0.40;;;0.40;;
80539;SDS011;69869;48.036;15.780;2023-08-07T04:11:58;0.40;;;0.40;;
80539;SDS011;69869;48.036;15.780;2023-08-07T04:14:24;0.40;;;0.40;;
80539;SDS011;69869;48.036;15.780;2023-08-07T04:16:49;0.73;;;0.50;;
80539;SDS011;69869;48.036;15.780;2023-08-07T04:19:15;0.55;;;0.47;;
80539;SDS011;69869;48.036;15.780;2023-08-07T04:21:41;0.40;;;0.40;;
80539;SDS011;69869;48.036;15.780;2023-08-07T04:24:07;0.35;;;0.35;;
80539;SDS011;69869;48.036;15.780;2023-08-07T04:26:36;0.60;;;0.60;;
80539;SDS011;69869;48.036;15.780;2023-08-07T04:29:03;0.60;;;0.60;;
80539;SDS011;69869;48.036;15.780;2023-08-07T04:31:29;0.50;;;0.50;;
80539;SDS011;69869;48.036;15.780;2023-08-07T04:33:58;0.50;;;0.50;;
80539;SDS011;69869;48.036;15.780;2023-08-07T04:36:24;0.52;;;0.52;;
80539;SDS011;69869;48.036;15.780;2023-08-07T04:38:50;0.30;;;0.30;;
80539;SDS011;69869;48.036;15.780;2023-08-07T04:41:16;0.50;;;0.50;;
80539;SDS011;69869;48.036;15.780;2023-08-07T04:43:42;0.50;;;0.50;;
80539;SDS011;69869;48.036;15.780;2023-08-07T04:46:08;0.40;;;0.40;;
80539;SDS011;69869;48.036;15.780;2023-08-07T04:48:34;0.80;;;0.40;;
80539;SDS011;69869;48.036;15.780;2023-08-07T04:51:01;0.40;;;0.40;;
80539;SDS011;69869;48.036;15.780;2023-08-07T04:53:27;0.52;;;0.52;;
80539;SDS011;69869;48.036;15.780;2023-08-07T04:55:52;0.40;;;0.40;;
80539;SDS011;69869;48.036;15.780;2023-08-07T04:58:18;0.98;;;0.40;;
80539;SDS011;69869;48.036;15.780;2023-08-07T05:00:44;0.50;;;0.50;;
80539;SDS011;69869;48.036;15.780;2023-08-07T05:03:09;1.38;;;0.40;;
80539;SDS011;69869;48.036;15.780;2023-08-07T05:05:35;0.60;;;0.60;;
80539;SDS011;69869;48.036;15.780;2023-08-07T05:08:00;0.40;;;0.40;;
80539;SDS011;69869;48.036;15.780;2023-08-07T05:10:26;0.40;;;0.40;;
80539;SDS011;69869;48.036;15.780;2023-08-07T05:12:52;0.52;;;0.52;;
80539;SDS011;69869;48.036;15.780;2023-08-07T05:15:24;0.73;;;0.45;;
80539;SDS011;69869;48.036;15.780;2023-08-07T05:17:50;0.40;;;0.40;;
80539;SDS011;69869;48.036;15.780;2023-08-07T05:20:17;0.40;;;0.40;;
80539;SDS011;69869;48.036;15.780;2023-08-07T05:22:43;0.50;;;0.50;;
80539;SDS011;69869;48.036;15.780;2023-08-07T05:25:09;0.32;;;0.32;;
80539;SDS011;69869;48.036;15.780;2023-08-07T05:27:36;0.40;;;0.40;;
80539;SDS011;69869;48.036;15.780;2023-08-07T05:30:02;0.40;;;0.40;;
80539;SDS011;69869;48.036;15.780;2023-08-07T05:32:28;0.57;;;0.57;;
80539;SDS011;69869;48.036;15.780;2023-08-07T05:34:53;0.50;;;0.50;;
80539;SDS011;69869;48.036;15.780;2023-08-07T05:37:19;0.30;;;0.30;;
80539;SDS011;69869;48.036;15.780;2023-08-07T05:39:45;0.40;;;0.40;;
80539;SDS011;69869;48.036;15.780;2023-08-07T05:42:11;0.32;;;0.32;;
80539;SDS011;69869;48.036;15.780;2023-08-07T05:44:37;0.90;;;0.50;;
80539;SDS011;69869;48.036;15.780;2023-08-07T05:47:03;0.43;;;0.43;;
80539;SDS011;69869;48.036;15.780;2023-08-07T05:49:29;0.38;;;0.38;;
80539;SDS011;69869;48.036;15.780;2023-08-07T05:51:54;0.40;;;0.40;;
80539;SDS011;69869;48.036;15.780;2023-08-07T05:54:20;0.35;;;0.35;;
80539;SDS011;69869;48.036;15.780;2023-08-07T05:56:46;0.40;;;0.40;;
80539;SDS011;69869;48.036;15.780;2023-08-07T05:59:11;0.50;;;0.50;;
80539;SDS011;69869;48.036;15.780;2023-08-07T06:01:37;0.60;;;0.40;;
80539;SDS011;69869;48.036;15.780;2023-08-07T06:04:03;1.73;;;0.40;;
80539;SDS011;69869;48.036;15.780;2023-08-07T06:06:29;0.32;;;0.32;;
80539;SDS011;69869;48.036;15.780;2023-08-07T06:08:55;0.40;;;0.40;;
80539;SDS011;69869;48.036;15.780;2023-08-07T06:11:20;0.40;;;0.40;;
80539;SDS011;69869;48.036;15.780;2023-08-07T06:13:48;0.40;;;0.40;;
80539;SDS011;69869;48.036;15.780;2023-08-07T06:16:14;0.40;;;0.40;;
80539;SDS011;69869;48.036;15.780;2023-08-07T06:18:39;0.30;;;0.30;;
80539;SDS011;69869;48.036;15.780;2023-08-07T06:21:05;0.40;;;0.40;;
80539;SDS011;69869;48.036;15.780;2023-08-07T06:23:35;0.38;;;0.38;;
80539;SDS011;69869;48.036;15.780;2023-08-07T06:26:00;0.30;;;0.30;;
80539;SDS011;69869;48.036;15.780;2023-08-07T06:28:29;0.35;;;0.35;;
80539;SDS011;69869;48.036;15.780;2023-08-07T06:31:05;0.35;;;0.35;;
80539;SDS011;69869;48.036;15.780;2023-08-07T06:33:31;0.30;;;0.30;;
80539;SDS011;69869;48.036;15.780;2023-08-07T06:35:58;0.30;;;0.30;;
80539;SDS011;69869;48.036;15.780;2023-08-07T06:38:24;0.32;;;0.32;;
80539;SDS011;69869;48.036;15.780;2023-08-07T06:40:50;0.40;;;0.40;;
80539;SDS011;69869;48.036;15.780;2023-08-07T06:43:16;1.25;;;0.50;;
80539;SDS011;69869;48.036;15.780;2023-08-07T06:45:42;0.50;;;0.50;;
80539;SDS011;69869;48.036;15.780;2023-08-07T06:48:07;0.40;;;0.40;;
80539;SDS011;69869;48.036;15.780;2023-08-07T06:50:33;0.38;;;0.38;;
80539;SDS011;69869;48.036;15.780;2023-08-07T06:52:58;0.30;;;0.30;;
80539;SDS011;69869;48.036;15.780;2023-08-07T06:55:25;0.30;;;0.30;;
80539;SDS011;69869;48.036;15.780;2023-08-07T06:57:51;0.30;;;0.30;;
80539;SDS011;69869;48.036;15.780;2023-08-07T07:00:16;0.30;;;0.30;;
80539;SDS011;69869;48.036;15.780;2023-08-07T07:02:42;0.30;;;0.30;;
80539;SDS011;69869;48.036;15.780;2023-08-07T07:05:08;0.40;;;0.40;;
80539;SDS011;69869;48.036;15.780;2023-08-07T07:07:34;0.40;;;0.40;;
80539;SDS011;69869;48.036;15.780;2023-08-07T07:10:00;0.30;;;0.30;;
80539;SDS011;69869;48.036;15.780;2023-08-07T07:12:28;0.40;;;0.40;;
80539;SDS011;69869;48.036;15.780;2023-08-07T07:14:54;0.30;;;0.30;;
80539;SDS011;69869;48.036;15.780;2023-08-07T07:17:20;0.57;;;0.30;;
80539;SDS011;69869;48.036;15.780;2023-08-07T07:19:46;0.45;;;0.30;;
80539;SDS011;69869;48.036;15.780;2023-08-07T07:22:12;0.65;;;0.35;;
80539;SDS011;69869;48.036;15.780;2023-08-07T07:24:37;0.30;;;0.30;;
80539;SDS011;69869;48.036;15.780;2023-08-07T07:27:03;0.40;;;0.40;;
80539;SDS011;69869;48.036;15.780;2023-08-07T07:29:29;1.05;;;0.47;;
80539;SDS011;69869;48.036;15.780;2023-08-07T07:31:55;2.95;;;0.57;;
80539;SDS011;69869;48.036;15.780;2023-08-07T07:34:21;4.05;;;0.45;;
80539;SDS011;69869;48.036;15.780;2023-08-07T07:36:47;0.95;;;0.40;;
80539;SDS011;69869;48.036;15.780;2023-08-07T07:39:13;2.60;;;0.70;;
80539;SDS011;69869;48.036;15.780;2023-08-07T07:41:38;2.83;;;0.50;;
80539;SDS011;69869;48.036;15.780;2023-08-07T07:44:04;3.40;;;0.50;;
80539;SDS011;69869;48.036;15.780;2023-08-07T07:46:30;1.67;;;0.50;;
80539;SDS011;69869;48.036;15.780;2023-08-07T07:48:57;2.00;;;0.50;;
80539;SDS011;69869;48.036;15.780;2023-08-07T07:51:23;1.42;;;0.40;;
80539;SDS011;69869;48.036;15.780;2023-08-07T07:53:49;2.47;;;0.50;;
80539;SDS011;69869;48.036;15.780;2023-08-07T07:56:15;1.75;;;0.50;;
80539;SDS011;69869;48.036;15.780;2023-08-07T07:58:40;1.45;;;0.45;;
80539;SDS011;69869;48.036;15.780;2023-08-07T08:01:06;1.92;;;0.32;;
80539;SDS011;69869;48.036;15.780;2023-08-07T08:03:33;0.98;;;0.57;;
80539;SDS011;69869;48.036;15.780;2023-08-07T08:05:59;0.52;;;0.50;;
80539;SDS011;69869;48.036;15.780;2023-08-07T08:08:24;0.30;;;0.30;;
80539;SDS011;69869;48.036;15.780;2023-08-07T08:10:50;1.75;;;0.40;;
80539;SDS011;69869;48.036;15.780;2023-08-07T08:13:16;2.45;;;0.50;;
80539;SDS011;69869;48.036;15.780;2023-08-07T08:15:44;0.80;;;0.40;;
80539;SDS011;69869;48.036;15.780;2023-08-07T08:18:10;0.43;;;0.40;;
80539;SDS011;69869;48.036;15.780;2023-08-07T08:20:37;0.65;;;0.50;;
80539;SDS011;69869;48.036;15.780;2023-08-07T08:23:03;0.77;;;0.50;;
80539;SDS011;69869;48.036;15.780;2023-08-07T08:25:29;1.52;;;0.50;;
80539;SDS011;69869;48.036;15.780;2023-08-07T08:27:56;0.88;;;0.50;;
80539;SDS011;69869;48.036;15.780;2023-08-07T08:30:21;0.45;;;0.30;;
80539;SDS011;69869;48.036;15.780;2023-08-07T08:32:47;0.52;;;0.43;;
80539;SDS011;69869;48.036;15.780;2023-08-07T08:35:13;0.85;;;0.40;;
80539;SDS011;69869;48.036;15.780;2023-08-07T08:37:39;0.30;;;0.30;;
80539;SDS011;69869;48.036;15.780;2023-08-07T08:40:05;0.40;;;0.40;;
80539;SDS011;69869;48.036;15.780;2023-08-07T08:42:33;0.52;;;0.40;;
80539;SDS011;69869;48.036;15.780;2023-08-07T08:44:59;0.45;;;0.40;;
80539;SDS011;69869;48.036;15.780;2023-08-07T08:47:27;2.10;;;0.60;;
80539;SDS011;69869;48.036;15.780;2023-08-07T08:50:04;0.88;;;0.40;;
80539;SDS011;69869;48.036;15.780;2023-08-07T08:52:33;1.52;;;0.60;;
80539;SDS011;69869;48.036;15.780;2023-08-07T08:55:00;0.60;;;0.60;;
80539;SDS011;69869;48.036;15.780;2023-08-07T08:57:26;0.40;;;0.40;;
80539;SDS011;69869;48.036;15.780;2023-08-07T08:59:53;0.40;;;0.40;;
80539;SDS011;69869;48.036;15.780;2023-08-07T09:02:21;0.60;;;0.40;;
80539;SDS011;69869;48.036;15.780;2023-08-07T09:04:47;0.60;;;0.60;;
80539;SDS011;69869;48.036;15.780;2023-08-07T09:07:13;2.83;;;0.40;;
80539;SDS011;69869;48.036;15.780;2023-08-07T09:09:41;0.98;;;0.50;;
80539;SDS011;69869;48.036;15.780;2023-08-07T09:12:11;1.02;;;0.57;;
80539;SDS011;69869;48.036;15.780;2023-08-07T09:14:41;1.48;;;0.50;;
80539;SDS011;69869;48.036;15.780;2023-08-07T09:17:11;0.47;;;0.47;;
80539;SDS011;69869;48.036;15.780;2023-08-07T09:19:39;0.47;;;0.47;;
80539;SDS011;69869;48.036;15.780;2023-08-07T09:22:05;1.30;;;0.50;;
80539;SDS011;69869;48.036;15.780;2023-08-07T09:24:32;2.03;;;0.50;;
80539;SDS011;69869;48.036;15.780;2023-08-07T09:26:57;1.13;;;0.45;;
80539;SDS011;69869;48.036;15.780;2023-08-07T09:29:23;0.32;;;0.32;;
80539;SDS011;69869;48.036;15.780;2023-08-07T09:31:49;0.30;;;0.30;;
80539;SDS011;69869;48.036;15.780;2023-08-07T09:34:15;0.55;;;0.50;;
80539;SDS011;69869;48.036;15.780;2023-08-07T09:36:45;0.50;;;0.50;;
80539;SDS011;69869;48.036;15.780;2023-08-07T09:39:11;1.77;;;0.50;;
80539;SDS011;69869;48.036;15.780;2023-08-07T09:41:36;0.50;;;0.50;;
80539;SDS011;69869;48.036;15.780;2023-08-07T09:44:06;0.40;;;0.40;;
80539;SDS011;69869;48.036;15.780;2023-08-07T09:46:42;0.40;;;0.40;;
80539;SDS011;69869;48.036;15.780;2023-08-07T09:49:08;0.73;;;0.50;;
80539;SDS011;69869;48.036;15.780;2023-08-07T09:51:43;0.47;;;0.47;;
80539;SDS011;69869;48.036;15.780;2023-08-07T09:54:10;0.35;;;0.35;;
80539;SDS011;69869;48.036;15.780;2023-08-07T09:56:36;0.50;;;0.50;;
80539;SDS011;69869;48.036;15.780;2023-08-07T09:59:05;0.50;;;0.50;;
80539;SDS011;69869;48.036;15.780;2023-08-07T10:01:33;1.00;;;0.40;;
80539;SDS011;69869;48.036;15.780;2023-08-07T10:04:03;0.52;;;0.52;;
80539;SDS011;69869;48.036;15.780;2023-08-07T10:06:30;0.50;;;0.50;;
80539;SDS011;69869;48.036;15.780;2023-08-07T10:08:56;0.30;;;0.30;;
80539;SDS011;69869;48.036;15.780;2023-08-07T10:11:22;1.02;;;0.55;;
80539;SDS011;69869;48.036;15.780;2023-08-07T10:13:49;0.50;;;0.50;;
80539;SDS011;69869;48.036;15.780;2023-08-07T10:16:15;0.60;;;0.43;;
80539;SDS011;69869;48.036;15.780;2023-08-07T10:18:41;0.50;;;0.50;;
80539;SDS011;69869;48.036;15.780;2023-08-07T10:21:06;1.02;;;0.40;;
80539;SDS011;69869;48.036;15.780;2023-08-07T10:23:34;0.47;;;0.45;;
80539;SDS011;69869;48.036;15.780;2023-08-07T10:26:01;0.47;;;0.47;;
80539;SDS011;69869;48.036;15.780;2023-08-07T10:28:33;0.50;;;0.50;;
80539;SDS011;69869;48.036;15.780;2023-08-07T10:33:29;0.50;;;0.50;;
80539;SDS011;69869;48.036;15.780;2023-08-07T10:35:57;0.47;;;0.47;;
80539;SDS011;69869;48.036;15.780;2023-08-07T10:38:24;0.52;;;0.52;;
80539;SDS011;69869;48.036;15.780;2023-08-07T10:41:00;2.95;;;0.60;;
80539;SDS011;69869;48.036;15.780;2023-08-07T10:43:26;0.50;;;0.50;;
80539;SDS011;69869;48.036;15.780;2023-08-07T10:45:53;0.80;;;0.50;;
80539;SDS011;69869;48.036;15.780;2023-08-07T10:48:20;0.70;;;0.50;;
80539;SDS011;69869;48.036;15.780;2023-08-07T10:51:03;0.50;;;0.50;;
80539;SDS011;69869;48.036;15.780;2023-08-07T10:53:30;0.50;;;0.50;;
80539;SDS011;69869;48.036;15.780;2023-08-07T10:55:57;0.57;;;0.57;;
80539;SDS011;69869;48.036;15.780;2023-08-07T10:58:36;0.50;;;0.50;;
80539;SDS011;69869;48.036;15.780;2023-08-07T11:03:40;0.40;;;0.40;;
80539;SDS011;69869;48.036;15.780;2023-08-07T11:06:09;0.60;;;0.60;;
80539;SDS011;69869;48.036;15.780;2023-08-07T11:08:35;0.60;;;0.60;;
80539;SDS011;69869;48.036;15.780;2023-08-07T11:11:05;0.82;;;0.68;;
80539;SDS011;69869;48.036;15.780;2023-08-07T11:13:31;0.70;;;0.57;;
80539;SDS011;69869;48.036;15.780;2023-08-07T11:15:58;0.47;;;0.47;;
80539;SDS011;69869;48.036;15.780;2023-08-07T11:18:25;0.52;;;0.50;;
80539;SDS011;69869;48.036;15.780;2023-08-07T11:20:52;0.55;;;0.55;;
80539;SDS011;69869;48.036;15.780;2023-08-07T11:23:24;0.83;;;0.63;;
80539;SDS011;69869;48.036;15.780;2023-08-07T11:25:51;1.45;;;0.60;;
80539;SDS011;69869;48.036;15.780;2023-08-07T11:28:18;1.17;;;0.60;;
80539;SDS011;69869;48.036;15.780;2023-08-07T11:30:45;0.60;;;0.60;;
80539;SDS011;69869;48.036;15.780;2023-08-07T11:33:14;1.02;;;0.80;;
80539;SDS011;69869;48.036;15.780;2023-08-07T11:35:41;0.60;;;0.60;;
80539;SDS011;69869;48.036;15.780;2023-08-07T11:38:07;0.80;;;0.80;;
80539;SDS011;69869;48.036;15.780;2023-08-07T11:40:33;1.20;;;0.90;;
80539;SDS011;69869;48.036;15.780;2023-08-07T11:42:59;1.42;;;0.80;;
80539;SDS011;69869;48.036;15.780;2023-08-07T11:45:26;0.82;;;0.82;;
80539;SDS011;69869;48.036;15.780;2023-08-07T11:47:52;1.92;;;0.80;;
80539;SDS011;69869;48.036;15.780;2023-08-07T11:50:21;2.25;;;0.75;;
80539;SDS011;69869;48.036;15.780;2023-08-07T11:52:47;0.88;;;0.70;;
80539;SDS011;69869;48.036;15.780;2023-08-07T11:55:17;0.60;;;0.60;;
80539;SDS011;69869;48.036;15.780;2023-08-07T11:57:45;1.02;;;0.80;;
80539;SDS011;69869;48.036;15.780;2023-08-07T12:00:11;1.45;;;0.63;;
80539;SDS011;69869;48.036;15.780;2023-08-07T12:02:43;1.15;;;1.00;;
80539;SDS011;69869;48.036;15.780;2023-08-07T12:05:12;0.88;;;0.80;;
80539;SDS011;69869;48.036;15.780;2023-08-07T12:07:38;0.75;;;0.75;;
80539;SDS011;69869;48.036;15.780;2023-08-07T12:10:08;2.72;;;1.00;;
80539;SDS011;69869;48.036;15.780;2023-08-07T12:12:37;0.88;;;0.85;;
80539;SDS011;69869;48.036;15.780;2023-08-07T12:15:06;2.15;;;0.90;;
80539;SDS011;69869;48.036;15.780;2023-08-07T12:17:33;1.52;;;0.70;;
80539;SDS011;69869;48.036;15.780;2023-08-07T12:19:58;1.15;;;0.90;;
80539;SDS011;69869;48.036;15.780;2023-08-07T12:22:26;1.35;;;0.80;;
80539;SDS011;69869;48.036;15.780;2023-08-07T12:24:53;0.80;;;0.80;;
80539;SDS011;69869;48.036;15.780;2023-08-07T12:27:19;1.42;;;1.17;;
80539;SDS011;69869;48.036;15.780;2023-08-07T12:29:45;2.08;;;1.50;;
80539;SDS011;69869;48.036;15.780;2023-08-07T12:32:11;1.75;;;1.30;;
80539;SDS011;69869;48.036;15.780;2023-08-07T12:34:37;1.20;;;1.10;;
80539;SDS011;69869;48.036;15.780;2023-08-07T12:37:05;1.83;;;1.40;;
80539;SDS011;69869;48.036;15.780;2023-08-07T12:39:31;1.65;;;1.40;;
80539;SDS011;69869;48.036;15.780;2023-08-07T12:41:57;1.50;;;1.30;;
80539;SDS011;69869;48.036;15.780;2023-08-07T12:44:23;2.08;;;1.20;;
80539;SDS011;69869;48.036;15.780;2023-08-07T12:46:49;2.25;;;1.48;;
80539;SDS011;69869;48.036;15.780;2023-08-07T12:49:15;2.00;;;1.30;;
80539;SDS011;69869;48.036;15.780;2023-08-07T12:51:43;1.35;;;1.20;;
80539;SDS011;69869;48.036;15.780;2023-08-07T12:54:09;1.20;;;1.10;;
80539;SDS011;69869;48.036;15.780;2023-08-07T12:56:35;1.30;;;1.13;;
80539;SDS011;69869;48.036;15.780;2023-08-07T12:59:01;1.38;;;1.10;;
80539;SDS011;69869;48.036;15.780;2023-08-07T13:01:27;1.20;;;1.10;;
80539;SDS011;69869;48.036;15.780;2023-08-07T13:03:53;1.25;;;1.10;;
80539;SDS011;69869;48.036;15.780;2023-08-07T13:06:19;2.00;;;1.40;;
80539;SDS011;69869;48.036;15.780;2023-08-07T13:08:44;1.20;;;1.10;;
80539;SDS011;69869;48.036;15.780;2023-08-07T13:11:11;1.10;;;1.00;;
80539;SDS011;69869;48.036;15.780;2023-08-07T13:13:37;1.40;;;1.30;;
80539;SDS011;69869;48.036;15.780;2023-08-07T13:16:03;1.30;;;1.20;;
80539;SDS011;69869;48.036;15.780;2023-08-07T13:18:29;1.33;;;1.23;;
80539;SDS011;69869;48.036;15.780;2023-08-07T13:20:54;2.13;;;1.20;;
80539;SDS011;69869;48.036;15.780;2023-08-07T13:23:21;1.38;;;1.27;;
80539;SDS011;69869;48.036;15.780;2023-08-07T13:25:47;1.33;;;1.20;;
80539;SDS011;69869;48.036;15.780;2023-08-07T13:28:13;1.02;;;1.02;;
80539;SDS011;69869;48.036;15.780;2023-08-07T13:30:39;1.42;;;1.30;;
80539;SDS011;69869;48.036;15.780;2023-08-07T13:33:04;1.13;;;1.02;;
80539;SDS011;69869;48.036;15.780;2023-08-07T13:35:31;1.20;;;1.10;;
80539;SDS011;69869;48.036;15.780;2023-08-07T13:37:57;1.13;;;1.10;;
80539;SDS011;69869;48.036;15.780;2023-08-07T13:40:23;2.05;;;1.10;;
80539;SDS011;69869;48.036;15.780;2023-08-07T13:42:49;1.35;;;1.20;;
80539;SDS011;69869;48.036;15.780;2023-08-07T13:45:15;1.67;;;1.38;;
80539;SDS011;69869;48.036;15.780;2023-08-07T13:47:40;1.10;;;1.10;;
80539;SDS011;69869;48.036;15.780;2023-08-07T13:50:07;1.27;;;1.10;;
80539;SDS011;69869;48.036;15.780;2023-08-07T13:52:34;1.30;;;1.20;;
80539;SDS011;69869;48.036;15.780;2023-08-07T13:55:00;1.30;;;1.20;;
80539;SDS011;69869;48.036;15.780;2023-08-07T13:57:26;1.75;;;1.15;;
80539;SDS011;69869;48.036;15.780;2023-08-07T13:59:51;1.17;;;1.08;;
80539;SDS011;69869;48.036;15.780;2023-08-07T14:02:19;1.17;;;1.10;;
80539;SDS011;69869;48.036;15.780;2023-08-07T14:04:44;1.20;;;1.10;;
80539;SDS011;69869;48.036;15.780;2023-08-07T14:07:10;1.20;;;1.10;;
80539;SDS011;69869;48.036;15.780;2023-08-07T14:09:36;1.23;;;1.13;;
80539;SDS011;69869;48.036;15.780;2023-08-07T14:12:02;1.17;;;1.08;;
80539;SDS011;69869;48.036;15.780;2023-08-07T14:14:28;1.10;;;1.00;;
80539;SDS011;69869;48.036;15.780;2023-08-07T14:16:54;1.00;;;1.00;;
80539;SDS011;69869;48.036;15.780;2023-08-07T14:19:22;1.27;;;1.15;;
80539;SDS011;69869;48.036;15.780;2023-08-07T14:21:49;1.38;;;1.27;;
80539;SDS011;69869;48.036;15.780;2023-08-07T14:24:15;0.90;;;0.90;;
80539;SDS011;69869;48.036;15.780;2023-08-07T14:26:42;1.20;;;1.10;;
80539;SDS011;69869;48.036;15.780;2023-08-07T14:29:08;1.58;;;1.10;;
80539;SDS011;69869;48.036;15.780;2023-08-07T14:31:33;0.98;;;0.98;;
80539;SDS011;69869;48.036;15.780;2023-08-07T14:33:59;1.02;;;1.02;;
80539;SDS011;69869;48.036;15.780;2023-08-07T14:36:25;1.33;;;1.10;;
80539;SDS011;69869;48.036;15.780;2023-08-07T14:38:51;1.30;;;1.20;;